createdAt,value
2018-05-17T00:01:16.897Z,11.63
2018-05-17T00:03:20.420Z,14.30
2018-05-17T00:05:24.600Z,13.70
2018-05-17T00:07:28.179Z,13.03
2018-05-17T00:09:31.821Z,13.27
2018-05-17T00:11:35.387Z,13.63
2018-05-17T00:13:38.957Z,12.70
2018-05-17T00:15:47.912Z,13.47
2018-05-17T00:17:51.422Z,13.50
2018-05-17T00:19:55.006Z,14.07
2018-05-17T00:21:58.511Z,13.87
2018-05-17T00:24:02.138Z,13.80
2018-05-17T00:26:05.626Z,13.63
2018-05-17T00:28:09.318Z,13.23
2018-05-17T00:30:12.925Z,13.67
2018-05-17T00:32:16.457Z,14.10
2018-05-17T00:34:20.121Z,14.93
2018-05-17T00:36:23.683Z,14.93
2018-05-17T00:38:27.329Z,12.90
2018-05-17T00:40:30.864Z,15.47
2018-05-17T00:42:34.822Z,16.57
2018-05-17T00:44:38.366Z,12.50
2018-05-17T00:46:41.885Z,17.07
2018-05-17T00:48:45.458Z,16.73
2018-05-17T00:50:49.078Z,15.47
2018-05-17T00:53:03.695Z,15.07
2018-05-17T00:55:07.259Z,14.13
2018-05-17T00:57:10.851Z,16.00
2018-05-17T00:59:14.457Z,16.10
2018-05-17T01:01:18.069Z,13.70
2018-05-17T01:03:21.735Z,15.80
2018-05-17T01:05:25.314Z,14.27
2018-05-17T01:07:28.911Z,14.07
2018-05-17T01:09:32.487Z,15.40
2018-05-17T01:11:39.062Z,15.47
2018-05-17T01:13:42.606Z,16.40
2018-05-17T01:15:46.163Z,16.63
2018-05-17T01:17:49.750Z,16.20
2018-05-17T01:19:53.368Z,18.27
2018-05-17T01:21:56.935Z,18.63
2018-05-17T01:24:00.493Z,18.60
2018-05-17T01:26:04.048Z,20.43
2018-05-17T01:28:07.625Z,19.70
2018-05-17T01:30:10.888Z,20.73
2018-05-17T01:32:14.463Z,21.57
2018-05-17T01:34:18.101Z,25.50
2018-05-17T01:36:21.665Z,27.13
2018-05-17T01:38:26.924Z,29.07
2018-05-17T01:40:30.590Z,26.47
2018-05-17T01:42:34.454Z,23.73
2018-05-17T01:44:38.040Z,23.73
2018-05-17T01:46:41.591Z,24.27
2018-05-17T01:48:45.191Z,31.70
2018-05-17T01:50:48.750Z,27.77
2018-05-17T01:52:52.335Z,34.57
2018-05-17T01:54:55.936Z,33.07
2018-05-17T01:56:59.551Z,33.97
2018-05-17T01:59:03.177Z,36.33
2018-05-17T02:01:06.415Z,33.23
2018-05-17T02:03:09.973Z,39.77
2018-05-17T02:05:13.558Z,39.40
2018-05-17T02:07:17.142Z,40.27
2018-05-17T02:09:20.786Z,44.17
2018-05-17T02:11:24.366Z,42.90
2018-05-17T02:13:27.970Z,44.47
2018-05-17T02:15:31.573Z,47.07
2018-05-17T02:17:35.167Z,46.93
2018-05-17T02:19:38.852Z,47.57
2018-05-17T02:21:42.436Z,50.40
2018-05-17T02:23:46.012Z,50.17
2018-05-17T02:25:49.544Z,48.97
2018-05-17T02:27:53.157Z,49.43
2018-05-17T02:29:56.741Z,47.77
2018-05-17T02:32:00.313Z,45.50
2018-05-17T02:34:03.888Z,46.03
2018-05-17T02:36:07.443Z,48.00
2018-05-17T02:38:11.016Z,51.03
2018-05-17T02:40:14.611Z,47.60
2018-05-17T02:42:18.203Z,47.50
2018-05-17T02:44:21.994Z,46.27
2018-05-17T02:46:25.619Z,45.70
2018-05-17T02:48:29.207Z,46.97
2018-05-17T02:50:32.912Z,46.47
2018-05-17T02:52:36.481Z,48.03
2018-05-17T02:54:40.108Z,46.37
2018-05-17T02:56:43.694Z,48.67
2018-05-17T02:58:47.301Z,49.93
2018-05-17T03:00:51.056Z,50.97
2018-05-17T03:02:54.652Z,52.60
2018-05-17T03:04:58.255Z,52.10
2018-05-17T03:07:01.815Z,52.67
2018-05-17T03:09:08.357Z,52.87
2018-05-17T03:11:11.601Z,55.30
2018-05-17T03:13:15.141Z,57.20
2018-05-17T03:15:18.723Z,55.10
2018-05-17T03:17:22.229Z,54.70
2018-05-17T03:19:25.825Z,58.07
2018-05-17T03:21:29.117Z,58.77
2018-05-17T03:23:32.783Z,58.17
2018-05-17T03:25:36.303Z,60.23
2018-05-17T03:27:39.870Z,59.07
2018-05-17T03:29:47.430Z,59.03
2018-05-17T03:31:50.991Z,61.10
2018-05-17T03:33:54.507Z,60.97
2018-05-17T03:35:58.059Z,62.73
2018-05-17T03:38:01.693Z,60.87
2018-05-17T03:40:05.257Z,58.60
2018-05-17T03:42:08.810Z,66.33
2018-05-17T03:44:12.383Z,63.73
2018-05-17T03:46:15.865Z,60.97
2018-05-17T03:48:19.458Z,60.77
2018-05-17T03:50:22.984Z,61.43
2018-05-17T03:52:26.505Z,60.50
2018-05-17T03:54:30.025Z,59.77
2018-05-17T03:56:33.607Z,64.60
2018-05-17T03:58:37.278Z,58.27
2018-05-17T04:00:51.915Z,58.50
2018-05-17T04:03:06.424Z,54.47
2018-05-17T04:05:21.093Z,52.17
2018-05-17T04:07:24.587Z,53.80
2018-05-17T04:09:27.812Z,52.90
2018-05-17T04:11:31.340Z,53.20
2018-05-17T04:13:35.071Z,53.10
2018-05-17T04:15:38.674Z,49.27
2018-05-17T04:17:42.161Z,46.50
2018-05-17T04:19:45.789Z,47.97
2018-05-17T04:21:49.328Z,45.53
2018-05-17T04:23:52.838Z,44.47
2018-05-17T04:25:56.351Z,43.10
2018-05-17T04:27:59.917Z,45.13
2018-05-17T04:30:03.116Z,43.90
2018-05-17T04:32:06.779Z,42.83
2018-05-17T04:34:10.307Z,43.13
2018-05-17T04:36:13.864Z,43.07
2018-05-17T04:38:17.497Z,43.50
2018-05-17T04:40:21.065Z,41.23
2018-05-17T04:42:24.591Z,41.77
2018-05-17T04:44:28.109Z,41.27
2018-05-17T04:49:05.178Z,41.20
2018-05-17T04:51:08.801Z,44.33
2018-05-17T04:53:12.332Z,38.10
2018-05-17T04:55:15.871Z,41.30
2018-05-17T04:57:21.444Z,39.07
2018-05-17T04:59:26.821Z,40.27
2018-05-17T05:01:30.570Z,38.40
2018-05-17T05:03:34.225Z,38.40
2018-05-17T05:05:37.914Z,38.07
2018-05-17T05:07:41.514Z,36.60
2018-05-17T05:09:45.077Z,37.27
2018-05-17T05:11:48.606Z,33.27
2018-05-17T05:13:52.260Z,34.77
2018-05-17T05:15:55.907Z,36.23
2018-05-17T05:17:59.467Z,36.93
2018-05-17T05:20:03.143Z,36.17
2018-05-17T05:22:06.700Z,36.80
2018-05-17T05:24:10.300Z,33.60
2018-05-17T05:26:13.915Z,32.07
2018-05-17T05:28:17.478Z,34.53
2018-05-17T05:30:21.089Z,34.27
2018-05-17T05:32:25.810Z,33.50
2018-05-17T05:34:29.538Z,35.63
2018-05-17T05:36:33.160Z,34.50
2018-05-17T05:38:36.669Z,35.20
2018-05-17T05:40:40.249Z,37.43
2018-05-17T05:42:43.766Z,35.73
2018-05-17T05:44:47.090Z,32.90
2018-05-17T05:46:50.678Z,35.20
2018-05-17T05:48:54.478Z,36.13
2018-05-17T05:50:58.097Z,36.00
2018-05-17T05:53:01.625Z,36.00
2018-05-17T05:55:05.285Z,38.50
2018-05-17T05:57:08.847Z,37.60
2018-05-17T05:59:14.930Z,36.87
2018-05-17T06:01:18.509Z,36.63
2018-05-17T06:03:22.487Z,37.70
2018-05-17T06:05:26.279Z,35.17
2018-05-17T06:07:30.581Z,37.40
2018-05-17T06:09:34.118Z,37.77
2018-05-17T06:11:37.689Z,37.83
2018-05-17T06:13:41.394Z,36.07
2018-05-17T06:15:45.073Z,39.50
2018-05-17T06:17:48.693Z,36.77
2018-05-17T06:19:52.265Z,39.07
2018-05-17T06:21:55.860Z,37.60
2018-05-17T06:23:59.692Z,37.40
2018-05-17T06:26:03.252Z,39.10
2018-05-17T06:28:06.856Z,39.47
2018-05-17T06:30:10.643Z,37.60
2018-05-17T06:32:14.212Z,37.67
2018-05-17T06:34:17.878Z,38.37
2018-05-17T06:36:21.487Z,37.17
2018-05-17T06:38:24.995Z,35.30
2018-05-17T06:40:28.577Z,34.67
2018-05-17T06:42:32.111Z,35.97
2018-05-17T06:44:35.766Z,35.13
2018-05-17T06:46:39.412Z,36.57
2018-05-17T06:48:43.199Z,34.57
2018-05-17T06:50:46.964Z,35.57
2018-05-17T06:52:50.578Z,35.40
2018-05-17T06:54:54.392Z,36.85
2018-05-17T06:56:58.121Z,34.20
2018-05-17T06:59:01.824Z,32.33
2018-05-17T07:01:05.438Z,35.10
2018-05-17T07:03:09.186Z,32.87
2018-05-17T07:05:12.843Z,30.80
2018-05-17T07:07:17.020Z,30.53
2018-05-17T07:09:20.626Z,31.20
2018-05-17T07:11:24.508Z,30.50
2018-05-17T07:13:28.536Z,32.97
2018-05-17T07:15:32.139Z,30.90
2018-05-17T07:17:36.225Z,30.07
2018-05-17T07:19:39.791Z,30.73
2018-05-17T07:21:43.376Z,29.87
2018-05-17T07:23:46.944Z,32.07
2018-05-17T07:28:06.959Z,30.40
2018-05-17T07:30:15.620Z,30.47
2018-05-17T07:32:19.286Z,27.20
2018-05-17T07:34:23.257Z,29.23
2018-05-17T07:36:26.905Z,27.50
2018-05-17T07:38:31.554Z,26.27
2018-05-17T07:40:35.175Z,25.87
2018-05-17T07:42:38.763Z,26.10
2018-05-17T07:44:42.412Z,25.03
2018-05-17T07:46:46.340Z,25.20
2018-05-17T07:48:50.052Z,24.67
2018-05-17T07:50:53.659Z,24.00
2018-05-17T07:52:57.243Z,23.73
2018-05-17T07:55:00.759Z,24.13
2018-05-17T07:57:04.641Z,23.93
2018-05-17T07:59:08.195Z,23.17
2018-05-17T08:01:11.804Z,24.53
2018-05-17T08:03:15.362Z,25.63
2018-05-17T08:05:19.035Z,22.47
2018-05-17T08:07:22.707Z,23.97
2018-05-17T08:09:26.065Z,23.47
2018-05-17T08:11:29.656Z,24.47
2018-05-17T08:13:33.388Z,22.93
2018-05-17T08:15:37.010Z,24.20
2018-05-17T08:17:40.608Z,23.83
2018-05-17T08:19:44.136Z,25.10
2018-05-17T08:21:47.697Z,24.90
2018-05-17T08:23:51.288Z,22.33
2018-05-17T08:25:54.896Z,22.87
2018-05-17T08:27:58.540Z,22.47
2018-05-17T08:30:02.203Z,22.80
2018-05-17T08:32:05.899Z,23.30
2018-05-17T08:34:09.470Z,24.53
2018-05-17T08:36:13.501Z,24.37
2018-05-17T08:38:18.586Z,25.13
2018-05-17T08:40:22.518Z,22.43
2018-05-17T08:42:26.403Z,24.10
2018-05-17T08:44:29.997Z,22.37
2018-05-17T08:46:33.575Z,22.57
2018-05-17T08:48:37.205Z,21.83
2018-05-17T08:50:40.730Z,22.40
2018-05-17T08:52:45.089Z,21.47
2018-05-17T08:54:54.274Z,21.50
2018-05-17T08:57:00.500Z,22.37
2018-05-17T08:59:04.236Z,22.97
2018-05-17T09:01:07.768Z,22.17
2018-05-17T09:03:11.444Z,21.87
2018-05-17T09:05:14.989Z,22.93
2018-05-17T09:07:18.977Z,21.60
2018-05-17T09:09:22.766Z,21.57
2018-05-17T09:11:30.122Z,22.03
2018-05-17T09:13:35.882Z,23.17
2018-05-17T09:15:40.452Z,22.57
2018-05-17T09:17:44.269Z,20.93
2018-05-17T09:19:48.287Z,21.13
2018-05-17T09:21:52.035Z,20.47
2018-05-17T09:23:55.676Z,21.33
2018-05-17T09:25:59.395Z,19.60
2018-05-17T09:28:04.502Z,18.67
2018-05-17T09:30:07.783Z,19.97
2018-05-17T09:32:11.477Z,19.97
2018-05-17T09:34:15.059Z,17.63
2018-05-17T09:36:19.031Z,17.17
2018-05-17T09:38:22.691Z,16.67
2018-05-17T09:40:26.382Z,16.60
2018-05-17T09:42:30.391Z,18.90
2018-05-17T09:44:35.612Z,16.57
2018-05-17T09:46:39.240Z,18.33
2018-05-17T09:48:42.827Z,17.43
2018-05-17T09:50:46.327Z,18.57
2018-05-17T09:52:49.915Z,17.43
2018-05-17T09:54:53.837Z,17.30
2018-05-17T09:56:57.533Z,16.13
2018-05-17T09:59:01.239Z,17.07
2018-05-17T10:01:04.835Z,17.03
2018-05-17T10:03:08.454Z,15.17
2018-05-17T10:05:12.224Z,17.30
2018-05-17T10:07:15.855Z,17.50
2018-05-17T10:09:19.409Z,16.40
2018-05-17T10:11:22.952Z,17.20
2018-05-17T10:13:26.929Z,15.70
2018-05-17T10:15:30.367Z,16.53
2018-05-17T10:17:34.737Z,17.03
2018-05-17T10:19:38.380Z,15.63
2018-05-17T10:21:41.982Z,14.43
2018-05-17T10:23:45.688Z,17.37
2018-05-17T10:25:49.337Z,16.57
2018-05-17T10:27:52.968Z,17.30
2018-05-17T10:29:56.578Z,17.00
2018-05-17T10:32:00.185Z,18.10
2018-05-17T10:34:03.864Z,16.43
2018-05-17T10:36:07.485Z,16.80
2018-05-17T10:38:11.087Z,18.93
2018-05-17T10:40:15.798Z,18.20
2018-05-17T10:42:19.407Z,19.97
2018-05-17T10:44:23.143Z,18.63
2018-05-17T10:46:26.663Z,18.67
2018-05-17T10:48:30.229Z,18.97
2018-05-17T10:50:33.796Z,18.23
2018-05-17T10:52:37.810Z,18.37
2018-05-17T10:54:42.122Z,16.50
2018-05-17T10:56:46.249Z,15.37
2018-05-17T10:58:50.262Z,15.27
2018-05-17T11:00:53.824Z,13.33
2018-05-17T11:02:57.333Z,14.70
2018-05-17T11:05:00.905Z,16.37
2018-05-17T11:07:04.457Z,15.10
2018-05-17T11:09:08.025Z,15.33
2018-05-17T11:11:11.577Z,17.00
2018-05-17T11:13:15.123Z,16.60
2018-05-17T11:15:18.910Z,17.63
2018-05-17T11:17:22.605Z,17.40
2018-05-17T11:19:26.168Z,16.20
2018-05-17T11:21:29.929Z,17.90
2018-05-17T11:23:33.527Z,18.17
2018-05-17T11:25:37.162Z,19.20
2018-05-17T11:27:40.730Z,18.10
2018-05-17T11:29:44.293Z,17.27
2018-05-17T11:31:47.821Z,15.97
2018-05-17T11:33:51.382Z,15.73
2018-05-17T11:35:54.959Z,16.27
2018-05-17T11:37:58.501Z,15.27
2018-05-17T11:40:02.042Z,15.57
2018-05-17T11:42:05.649Z,14.53
2018-05-17T11:44:09.595Z,16.40
2018-05-17T11:46:14.571Z,17.53
2018-05-17T11:48:18.260Z,16.00
2018-05-17T11:50:22.935Z,14.13
2018-05-17T11:52:26.609Z,13.77
2018-05-17T11:54:30.283Z,15.37
2018-05-17T11:56:34.664Z,14.63
2018-05-17T11:58:38.198Z,14.67
2018-05-17T12:00:41.895Z,14.77
2018-05-17T12:02:45.501Z,15.73
2018-05-17T12:04:49.244Z,16.00
2018-05-17T12:06:52.782Z,16.20
2018-05-17T12:08:56.419Z,15.63
2018-05-17T12:11:00.006Z,14.60
2018-05-17T12:13:03.603Z,13.47
2018-05-17T12:15:07.232Z,15.00
2018-05-17T12:17:10.835Z,15.33
2018-05-17T12:19:14.838Z,14.40
2018-05-17T12:21:18.458Z,14.00
2018-05-17T12:23:23.591Z,14.63
2018-05-17T12:25:27.446Z,14.93
2018-05-17T12:27:31.255Z,14.40
2018-05-17T12:29:35.165Z,14.47
2018-05-17T12:31:38.833Z,14.40
2018-05-17T12:33:42.558Z,14.43
2018-05-17T12:35:48.674Z,14.63
2018-05-17T12:37:53.995Z,13.93
2018-05-17T12:39:59.199Z,13.17
2018-05-17T12:42:02.868Z,13.30
2018-05-17T12:44:10.154Z,13.37
2018-05-17T12:46:14.255Z,13.50
2018-05-17T12:48:17.805Z,13.70
2018-05-17T12:50:21.450Z,13.50
2018-05-17T12:52:25.054Z,14.50
2018-05-17T12:54:28.590Z,13.40
2018-05-17T12:56:32.112Z,12.80
2018-05-17T12:58:35.754Z,14.20
2018-05-17T13:00:39.432Z,13.90
2018-05-17T13:02:42.988Z,14.50
2018-05-17T13:04:46.585Z,14.33
2018-05-17T13:06:50.133Z,13.67
2018-05-17T13:08:53.701Z,15.07
2018-05-17T13:10:57.284Z,16.03
2018-05-17T13:13:00.930Z,17.13
2018-05-17T13:15:04.243Z,16.57
2018-05-17T13:17:07.805Z,16.53
2018-05-17T13:19:12.532Z,15.07
2018-05-17T13:21:17.846Z,15.30
2018-05-17T13:23:21.943Z,13.90
2018-05-17T13:25:25.624Z,13.10
2018-05-17T13:27:29.273Z,13.67
2018-05-17T13:29:33.038Z,13.30
2018-05-17T13:31:37.926Z,13.77
2018-05-17T13:33:44.290Z,12.20
2018-05-17T13:35:50.146Z,11.57
2018-05-17T13:37:53.718Z,11.00
2018-05-17T13:39:57.285Z,10.73
2018-05-17T13:42:00.894Z,10.80
2018-05-17T13:44:04.182Z,12.00
2018-05-17T13:46:07.822Z,11.20
2018-05-17T13:48:11.388Z,10.20
2018-05-17T13:50:15.040Z,10.53
2018-05-17T13:52:18.582Z,11.93
2018-05-17T13:54:22.203Z,11.17
2018-05-17T13:56:25.775Z,12.50
2018-05-17T13:58:29.300Z,13.83
2018-05-17T14:00:32.988Z,15.47
2018-05-17T14:02:36.691Z,15.00
2018-05-17T14:04:40.440Z,15.30
2018-05-17T14:06:43.944Z,17.23
2018-05-17T14:08:47.542Z,16.70
2018-05-17T14:10:51.084Z,17.33
2018-05-17T14:12:54.637Z,18.37
2018-05-17T14:14:58.192Z,17.30
2018-05-17T14:17:01.746Z,19.03
2018-05-17T14:19:05.341Z,19.97
2018-05-17T14:21:08.948Z,20.43
2018-05-17T14:23:12.527Z,22.20
2018-05-17T14:25:16.250Z,23.87
2018-05-17T14:27:19.945Z,56.93
2018-05-17T14:29:23.498Z,43.90
2018-05-17T14:31:27.043Z,25.53
2018-05-17T14:33:31.228Z,35.03
2018-05-17T14:35:34.775Z,23.90
2018-05-17T14:37:37.997Z,24.27
2018-05-17T14:39:41.712Z,20.10
2018-05-17T14:41:44.953Z,24.13
2018-05-17T14:43:48.566Z,43.17
2018-05-17T14:45:52.127Z,28.67
2018-05-17T14:47:56.177Z,19.43
2018-05-17T14:49:59.866Z,21.60
2018-05-17T14:52:03.415Z,17.27
2018-05-17T14:54:07.127Z,17.27
2018-05-17T14:56:10.763Z,17.93
2018-05-17T14:58:14.342Z,15.63
2018-05-17T15:00:18.279Z,14.73
2018-05-17T15:02:21.860Z,31.30
2018-05-17T15:04:25.407Z,16.70
2018-05-17T15:06:29.547Z,25.90
2018-05-17T15:08:33.857Z,15.70
2018-05-17T15:10:37.520Z,14.17
2018-05-17T15:12:41.059Z,16.00
2018-05-17T15:14:44.633Z,20.50
2018-05-17T15:16:48.243Z,14.37
2018-05-17T15:18:51.978Z,14.30
2018-05-17T15:20:55.854Z,12.10
2018-05-17T15:22:59.860Z,14.60
2018-05-17T15:25:03.479Z,18.57
2018-05-17T15:27:07.208Z,14.17
2018-05-17T15:29:11.127Z,12.93
2018-05-17T15:31:14.751Z,12.07
2018-05-17T15:33:18.689Z,14.57
2018-05-17T15:35:22.403Z,25.90
2018-05-17T15:37:26.005Z,17.20
2018-05-17T15:39:29.544Z,14.00
2018-05-17T15:41:33.320Z,12.07
2018-05-17T15:43:37.474Z,16.17
2018-05-17T15:45:41.082Z,31.13
2018-05-17T15:47:44.654Z,12.83
2018-05-17T15:49:48.557Z,10.33
2018-05-17T15:51:52.126Z,10.40
2018-05-17T15:53:55.691Z,10.13
2018-05-17T15:55:59.425Z,9.83
2018-05-17T15:58:03.247Z,8.90
2018-05-17T16:00:06.849Z,9.40
2018-05-17T16:02:10.410Z,8.93
2018-05-17T16:04:13.999Z,8.17
2018-05-17T16:06:17.701Z,8.87
2018-05-17T16:08:20.890Z,8.07
2018-05-17T16:10:24.517Z,8.30
2018-05-17T16:12:28.086Z,8.07
2018-05-17T16:14:31.842Z,9.10
2018-05-17T16:16:35.579Z,9.17
2018-05-17T16:18:39.087Z,7.83
2018-05-17T16:20:42.683Z,8.00
2018-05-17T16:22:46.321Z,8.73
2018-05-17T16:24:49.868Z,7.60
2018-05-17T16:26:53.469Z,7.00
2018-05-17T16:28:57.078Z,7.33
2018-05-17T16:31:00.734Z,6.87
2018-05-17T16:33:04.099Z,7.07
2018-05-17T16:35:07.989Z,7.67
2018-05-17T16:37:11.652Z,8.00
2018-05-17T16:39:15.392Z,6.97
2018-05-17T16:41:19.631Z,8.10
2018-05-17T16:43:23.515Z,8.83
2018-05-17T16:45:27.509Z,7.40
2018-05-17T16:47:31.645Z,7.90
2018-05-17T16:49:35.296Z,7.87
2018-05-17T16:51:38.855Z,8.57
2018-05-17T16:53:42.373Z,8.17
2018-05-17T16:55:46.036Z,8.47
2018-05-17T16:57:49.659Z,8.57
2018-05-17T16:59:53.257Z,9.00
2018-05-17T17:01:57.151Z,6.73
2018-05-17T17:04:00.890Z,7.53
2018-05-17T17:06:04.479Z,8.30
2018-05-17T17:08:08.293Z,8.40
2018-05-17T17:10:11.947Z,9.93
2018-05-17T17:12:15.635Z,9.57
2018-05-17T17:14:19.290Z,8.50
2018-05-17T17:16:23.119Z,7.90
2018-05-17T17:18:27.277Z,8.10
2018-05-17T17:20:31.359Z,8.73
2018-05-17T17:22:34.965Z,7.87
2018-05-17T17:24:39.087Z,7.27
2018-05-17T17:26:43.240Z,6.40
2018-05-17T17:28:47.086Z,6.07
2018-05-17T17:30:51.023Z,6.53
2018-05-17T17:32:55.277Z,7.00
2018-05-17T17:34:59.000Z,6.13
2018-05-17T17:37:02.623Z,5.80
2018-05-17T17:39:06.591Z,5.53
2018-05-17T17:41:10.984Z,5.13
2018-05-17T17:43:14.699Z,5.53
2018-05-17T17:45:18.411Z,5.53
2018-05-17T17:47:22.655Z,5.40
2018-05-17T17:49:26.785Z,4.77
2018-05-17T17:51:30.506Z,5.13
2018-05-17T17:53:34.304Z,5.30
2018-05-17T17:55:38.265Z,5.30
2018-05-17T17:57:42.393Z,4.50
2018-05-17T17:59:46.071Z,4.40
2018-05-17T18:01:49.704Z,4.63
2018-05-17T18:03:53.794Z,4.77
2018-05-17T18:05:58.209Z,4.70
2018-05-17T18:08:02.124Z,4.13
2018-05-17T18:10:05.633Z,5.37
2018-05-17T18:12:09.363Z,5.13
2018-05-17T18:14:13.246Z,4.83
2018-05-17T18:16:17.683Z,5.37
2018-05-17T18:18:21.719Z,5.60
2018-05-17T18:20:25.449Z,4.33
2018-05-17T18:22:29.141Z,4.47
2018-05-17T18:24:32.986Z,5.20
2018-05-17T18:26:36.600Z,4.53
2018-05-17T18:28:40.546Z,4.17
2018-05-17T18:30:44.540Z,5.47
2018-05-17T18:32:48.256Z,5.10
2018-05-17T18:34:51.865Z,4.70
2018-05-17T18:36:55.609Z,4.90
2018-05-17T18:38:59.531Z,4.53
2018-05-17T18:41:03.462Z,4.57
2018-05-17T18:43:07.537Z,4.50
2018-05-17T18:45:11.596Z,4.33
2018-05-17T18:47:15.298Z,4.63
2018-05-17T18:49:19.007Z,4.97
2018-05-17T18:51:22.830Z,5.03
2018-05-17T18:53:26.925Z,4.73
2018-05-17T18:55:30.920Z,4.67
2018-05-17T18:57:34.977Z,4.87
2018-05-17T18:59:38.730Z,5.53
2018-05-17T19:01:42.467Z,5.53
2018-05-17T19:03:46.325Z,5.93
2018-05-17T19:05:50.251Z,7.40
2018-05-17T19:07:53.989Z,5.90
2018-05-17T19:09:57.599Z,6.27
2018-05-17T19:12:01.373Z,4.83
2018-05-17T19:14:05.054Z,5.23
2018-05-17T19:16:08.895Z,4.60
2018-05-17T19:18:12.582Z,5.53
2018-05-17T19:20:16.275Z,4.70
2018-05-17T19:22:20.060Z,4.80
2018-05-17T19:24:23.781Z,4.77
2018-05-17T19:26:27.499Z,5.10
2018-05-17T19:28:31.146Z,4.30
2018-05-17T19:30:34.759Z,4.53
2018-05-17T19:32:38.382Z,5.50
2018-05-17T19:34:42.004Z,6.10
2018-05-17T19:36:45.642Z,5.93
2018-05-17T19:38:49.406Z,5.07
2018-05-17T19:40:53.380Z,5.77
2018-05-17T19:42:57.163Z,5.10
2018-05-17T19:45:00.792Z,4.90
2018-05-17T19:47:04.555Z,6.10
2018-05-17T19:49:08.142Z,5.97
2018-05-17T19:51:11.848Z,5.50
2018-05-17T19:53:15.560Z,5.23
2018-05-17T19:55:19.163Z,5.87
2018-05-17T19:57:22.774Z,5.30
2018-05-17T19:59:26.324Z,5.37
2018-05-17T20:01:29.944Z,4.90
2018-05-17T20:03:33.557Z,4.40
2018-05-17T20:05:37.192Z,4.37
2018-05-17T20:07:40.848Z,3.77
2018-05-17T20:09:44.447Z,4.13
2018-05-17T20:11:48.154Z,4.77
2018-05-17T20:13:51.829Z,5.43
2018-05-17T20:15:55.488Z,6.13
2018-05-17T20:17:59.098Z,6.97
2018-05-17T20:20:02.643Z,6.07
2018-05-17T20:22:06.442Z,6.77
2018-05-17T20:24:09.985Z,5.67
2018-05-17T20:26:13.585Z,7.00
2018-05-17T20:28:17.265Z,5.87
2018-05-17T20:30:20.872Z,7.10
2018-05-17T20:32:24.526Z,6.20
2018-05-17T20:34:28.155Z,6.50
2018-05-17T20:36:31.865Z,6.73
2018-05-17T20:38:35.617Z,6.87
2018-05-17T20:40:39.439Z,5.87
2018-05-17T20:42:43.379Z,7.25
2018-05-17T20:44:46.973Z,6.77
2018-05-17T20:46:50.596Z,6.47
2018-05-17T20:48:54.175Z,6.13
2018-05-17T20:50:57.750Z,6.70
2018-05-17T20:53:01.355Z,6.23
2018-05-17T20:55:05.026Z,6.00
2018-05-17T20:57:08.934Z,6.25
2018-05-17T20:59:12.817Z,6.82
2018-05-17T21:01:16.442Z,6.43
2018-05-17T21:03:20.370Z,6.40
2018-05-17T21:05:24.227Z,7.07
2018-05-17T21:07:28.195Z,7.00
2018-05-17T21:09:32.090Z,6.78
2018-05-17T21:11:36.095Z,6.62
2018-05-17T21:13:40.101Z,6.18
2018-05-17T21:15:44.067Z,6.20
2018-05-17T21:17:48.064Z,6.75
2018-05-17T21:19:51.921Z,6.68
2018-05-17T21:21:55.830Z,7.43
2018-05-17T21:23:59.724Z,6.95
2018-05-17T21:26:03.661Z,7.65
2018-05-17T21:28:07.628Z,7.57
2018-05-17T21:30:11.518Z,7.05
2018-05-17T21:32:15.423Z,6.85
2018-05-17T21:34:19.316Z,7.18
2018-05-17T21:36:23.173Z,7.70
2018-05-17T21:38:27.113Z,7.22
2018-05-17T21:40:30.989Z,7.22
2018-05-17T21:42:35.037Z,8.35
2018-05-17T21:44:38.950Z,7.22
2018-05-17T21:46:42.863Z,8.18
2018-05-17T21:48:46.804Z,8.45
2018-05-17T21:50:50.752Z,7.68
2018-05-17T21:52:54.710Z,7.32
2018-05-17T21:54:58.617Z,7.30
2018-05-17T21:57:02.522Z,6.87
2018-05-17T21:59:06.357Z,7.72
2018-05-17T22:01:10.236Z,6.60
2018-05-17T22:03:14.161Z,6.60
2018-05-17T22:05:18.060Z,7.22
2018-05-17T22:07:22.225Z,6.57
2018-05-17T22:09:26.223Z,6.82
2018-05-17T22:11:30.146Z,6.95
2018-05-17T22:13:34.114Z,6.82
2018-05-17T22:15:38.271Z,7.32
2018-05-17T22:17:42.236Z,7.40
2018-05-17T22:19:45.791Z,6.90
2018-05-17T22:21:49.632Z,6.37
2018-05-17T22:23:53.504Z,8.23
2018-05-17T22:25:57.391Z,6.60
2018-05-17T22:28:01.326Z,7.30
2018-05-17T22:30:04.890Z,6.12
2018-05-17T22:32:08.794Z,7.60
2018-05-17T22:34:12.687Z,6.43
2018-05-17T22:36:16.518Z,6.68
2018-05-17T22:38:20.475Z,6.82
2018-05-17T22:40:24.328Z,6.70
2018-05-17T22:42:27.879Z,6.28
2018-05-17T22:44:31.734Z,7.18
2018-05-17T22:46:35.625Z,8.02
2018-05-17T22:48:39.560Z,6.57
2018-05-17T22:50:43.412Z,6.62
2018-05-17T22:52:47.888Z,7.12
2018-05-17T22:54:51.714Z,6.62
2018-05-17T22:57:06.681Z,5.97
2018-05-17T22:59:10.240Z,7.35
2018-05-17T23:01:14.067Z,7.32
2018-05-17T23:03:17.965Z,7.15
2018-05-17T23:05:21.814Z,6.80
2018-05-17T23:07:25.745Z,6.85
2018-05-17T23:09:29.309Z,7.12
2018-05-17T23:11:33.221Z,7.30
2018-05-17T23:13:37.124Z,7.00
2018-05-17T23:15:40.985Z,7.82
2018-05-17T23:17:44.857Z,8.23
2018-05-17T23:19:48.683Z,7.05
2018-05-17T23:21:52.545Z,7.85
2018-05-17T23:23:56.101Z,7.85
2018-05-17T23:25:59.952Z,8.02
2018-05-17T23:28:03.842Z,7.82
2018-05-17T23:30:07.700Z,7.28
2018-05-17T23:32:11.192Z,8.05
2018-05-17T23:34:14.857Z,7.22
2018-05-17T23:36:18.761Z,6.70
2018-05-17T23:38:22.697Z,8.65
2018-05-17T23:40:37.659Z,8.43
2018-05-17T23:42:41.610Z,8.32
2018-05-17T23:44:45.463Z,7.40
2018-05-17T23:46:49.371Z,8.15
2018-05-17T23:48:53.268Z,8.43
2018-05-17T23:50:57.364Z,9.55
2018-05-17T23:53:01.289Z,7.60
2018-05-17T23:55:04.860Z,9.00
2018-05-17T23:57:08.758Z,8.93
2018-05-17T23:59:12.775Z,7.72
